sensor_id;sensor_type;location;lat;lon;timestamp;P1;durP1;ratioP1;P2;durP2;ratioP2
76712;SDS011;65640;43.154;25.658;2023-02-21T00:00:57;1.88;;;1.13;;
76712;SDS011;65640;43.154;25.658;2023-02-21T00:03:41;0.98;;;0.80;;
76712;SDS011;65640;43.154;25.658;2023-02-21T00:06:25;0.95;;;0.40;;
76712;SDS011;65640;43.154;25.658;2023-02-21T00:09:09;0.95;;;0.60;;
76712;SDS011;65640;43.154;25.658;2023-02-21T00:11:53;0.77;;;0.40;;
76712;SDS011;65640;43.154;25.658;2023-02-21T00:14:37;1.10;;;0.45;;
76712;SDS011;65640;43.154;25.658;2023-02-21T00:17:21;1.17;;;0.60;;
76712;SDS011;65640;43.154;25.658;2023-02-21T00:20:05;0.70;;;0.40;;
76712;SDS011;65640;43.154;25.658;2023-02-21T00:22:50;1.15;;;0.90;;
76712;SDS011;65640;43.154;25.658;2023-02-21T00:25:34;2.30;;;0.73;;
76712;SDS011;65640;43.154;25.658;2023-02-21T00:28:18;0.73;;;0.70;;
76712;SDS011;65640;43.154;25.658;2023-02-21T00:31:02;1.00;;;0.65;;
76712;SDS011;65640;43.154;25.658;2023-02-21T00:33:46;0.80;;;0.52;;
76712;SDS011;65640;43.154;25.658;2023-02-21T00:36:30;1.27;;;0.77;;
76712;SDS011;65640;43.154;25.658;2023-02-21T00:39:14;1.40;;;1.30;;
76712;SDS011;65640;43.154;25.658;2023-02-21T00:41:57;1.40;;;1.30;;
76712;SDS011;65640;43.154;25.658;2023-02-21T00:44:41;1.35;;;1.25;;
76712;SDS011;65640;43.154;25.658;2023-02-21T00:47:25;1.35;;;1.10;;
76712;SDS011;65640;43.154;25.658;2023-02-21T00:50:09;1.63;;;0.98;;
76712;SDS011;65640;43.154;25.658;2023-02-21T00:52:53;0.47;;;0.47;;
76712;SDS011;65640;43.154;25.658;2023-02-21T00:55:37;0.88;;;0.88;;
76712;SDS011;65640;43.154;25.658;2023-02-21T00:58:21;1.27;;;0.93;;
76712;SDS011;65640;43.154;25.658;2023-02-21T01:01:05;0.88;;;0.70;;
76712;SDS011;65640;43.154;25.658;2023-02-21T01:03:49;0.68;;;0.63;;
76712;SDS011;65640;43.154;25.658;2023-02-21T01:06:33;0.60;;;0.60;;
76712;SDS011;65640;43.154;25.658;2023-02-21T01:09:17;0.75;;;0.50;;
76712;SDS011;65640;43.154;25.658;2023-02-21T01:12:01;0.98;;;0.60;;
76712;SDS011;65640;43.154;25.658;2023-02-21T01:14:45;0.90;;;0.75;;
76712;SDS011;65640;43.154;25.658;2023-02-21T01:17:29;0.98;;;0.43;;
76712;SDS011;65640;43.154;25.658;2023-02-21T01:20:13;0.73;;;0.40;;
76712;SDS011;65640;43.154;25.658;2023-02-21T01:22:57;0.50;;;0.47;;
76712;SDS011;65640;43.154;25.658;2023-02-21T01:25:41;0.73;;;0.50;;
76712;SDS011;65640;43.154;25.658;2023-02-21T01:28:25;0.85;;;0.60;;
76712;SDS011;65640;43.154;25.658;2023-02-21T01:31:09;0.73;;;0.60;;
76712;SDS011;65640;43.154;25.658;2023-02-21T01:33:53;0.77;;;0.77;;
76712;SDS011;65640;43.154;25.658;2023-02-21T01:36:39;1.05;;;0.85;;
76712;SDS011;65640;43.154;25.658;2023-02-21T01:39:24;1.00;;;0.90;;
76712;SDS011;65640;43.154;25.658;2023-02-21T01:42:08;1.05;;;0.75;;
76712;SDS011;65640;43.154;25.658;2023-02-21T01:48:15;0.70;;;0.70;;
76712;SDS011;65640;43.154;25.658;2023-02-21T01:51:02;0.80;;;0.77;;
76712;SDS011;65640;43.154;25.658;2023-02-21T01:53:51;0.98;;;0.75;;
76712;SDS011;65640;43.154;25.658;2023-02-21T01:56:36;0.90;;;0.77;;
76712;SDS011;65640;43.154;25.658;2023-02-21T01:59:22;0.75;;;0.63;;
76712;SDS011;65640;43.154;25.658;2023-02-21T02:02:16;1.52;;;0.73;;
76712;SDS011;65640;43.154;25.658;2023-02-21T02:05:05;1.33;;;0.60;;
76712;SDS011;65640;43.154;25.658;2023-02-21T02:07:52;1.75;;;0.82;;
76712;SDS011;65640;43.154;25.658;2023-02-21T02:16:27;0.82;;;0.68;;
76712;SDS011;65640;43.154;25.658;2023-02-21T02:40:32;0.52;;;0.52;;
76712;SDS011;65640;43.154;25.658;2023-02-21T02:46:13;0.70;;;0.70;;
76712;SDS011;65640;43.154;25.658;2023-02-21T02:49:04;1.20;;;0.80;;
76712;SDS011;65640;43.154;25.658;2023-02-21T02:51:32;2.30;;;0.80;;
76712;SDS011;65640;43.154;25.658;2023-02-21T02:53:59;0.80;;;0.80;;
76712;SDS011;65640;43.154;25.658;2023-02-21T02:56:24;0.85;;;0.68;;
76712;SDS011;65640;43.154;25.658;2023-02-21T02:58:59;1.38;;;0.70;;
76712;SDS011;65640;43.154;25.658;2023-02-21T03:04:30;0.80;;;0.80;;
76712;SDS011;65640;43.154;25.658;2023-02-21T03:15:36;0.70;;;0.70;;
76712;SDS011;65640;43.154;25.658;2023-02-21T03:18:30;0.93;;;0.75;;
76712;SDS011;65640;43.154;25.658;2023-02-21T03:21:01;1.25;;;0.80;;
76712;SDS011;65640;43.154;25.658;2023-02-21T03:23:30;1.38;;;1.02;;
76712;SDS011;65640;43.154;25.658;2023-02-21T03:26:00;2.30;;;1.40;;
76712;SDS011;65640;43.154;25.658;2023-02-21T03:28:30;1.60;;;1.40;;
76712;SDS011;65640;43.154;25.658;2023-02-21T03:30:57;1.30;;;1.20;;
76712;SDS011;65640;43.154;25.658;2023-02-21T03:33:24;1.02;;;0.98;;
76712;SDS011;65640;43.154;25.658;2023-02-21T03:35:50;0.93;;;0.80;;
76712;SDS011;65640;43.154;25.658;2023-02-21T03:38:16;1.25;;;0.70;;
76712;SDS011;65640;43.154;25.658;2023-02-21T03:40:42;0.80;;;0.80;;
76712;SDS011;65640;43.154;25.658;2023-02-21T03:43:07;1.30;;;1.20;;
76712;SDS011;65640;43.154;25.658;2023-02-21T03:45:33;1.65;;;1.55;;
76712;SDS011;65640;43.154;25.658;2023-02-21T03:47:59;1.08;;;1.08;;
76712;SDS011;65640;43.154;25.658;2023-02-21T03:50:25;0.90;;;0.90;;
76712;SDS011;65640;43.154;25.658;2023-02-21T03:52:51;0.70;;;0.70;;
76712;SDS011;65640;43.154;25.658;2023-02-21T03:55:16;1.35;;;0.95;;
76712;SDS011;65640;43.154;25.658;2023-02-21T03:57:42;0.60;;;0.50;;
76712;SDS011;65640;43.154;25.658;2023-02-21T04:00:08;0.73;;;0.60;;
76712;SDS011;65640;43.154;25.658;2023-02-21T04:02:34;1.20;;;0.98;;
76712;SDS011;65640;43.154;25.658;2023-02-21T04:04:59;0.98;;;0.70;;
76712;SDS011;65640;43.154;25.658;2023-02-21T04:07:25;1.33;;;0.70;;
76712;SDS011;65640;43.154;25.658;2023-02-21T04:09:50;1.77;;;1.00;;
76712;SDS011;65640;43.154;25.658;2023-02-21T04:12:15;1.35;;;0.90;;
76712;SDS011;65640;43.154;25.658;2023-02-21T04:14:41;1.10;;;0.75;;
76712;SDS011;65640;43.154;25.658;2023-02-21T04:17:06;1.38;;;1.00;;
76712;SDS011;65640;43.154;25.658;2023-02-21T04:19:32;1.38;;;1.23;;
76712;SDS011;65640;43.154;25.658;2023-02-21T04:21:57;1.10;;;1.00;;
76712;SDS011;65640;43.154;25.658;2023-02-21T04:24:23;1.17;;;0.63;;
76712;SDS011;65640;43.154;25.658;2023-02-21T04:26:48;1.27;;;0.90;;
76712;SDS011;65640;43.154;25.658;2023-02-21T04:29:14;3.63;;;0.80;;
76712;SDS011;65640;43.154;25.658;2023-02-21T04:31:39;1.33;;;1.20;;
76712;SDS011;65640;43.154;25.658;2023-02-21T04:34:05;1.38;;;1.20;;
76712;SDS011;65640;43.154;25.658;2023-02-21T04:36:30;7.75;;;3.45;;
76712;SDS011;65640;43.154;25.658;2023-02-21T04:38:56;2.35;;;1.90;;
76712;SDS011;65640;43.154;25.658;2023-02-21T04:41:21;2.63;;;1.13;;
76712;SDS011;65640;43.154;25.658;2023-02-21T04:43:47;1.38;;;0.93;;
76712;SDS011;65640;43.154;25.658;2023-02-21T04:46:13;0.77;;;0.70;;
76712;SDS011;65640;43.154;25.658;2023-02-21T04:48:41;1.10;;;0.70;;
76712;SDS011;65640;43.154;25.658;2023-02-21T04:51:08;0.95;;;0.80;;
76712;SDS011;65640;43.154;25.658;2023-02-21T04:53:34;2.95;;;1.05;;
76712;SDS011;65640;43.154;25.658;2023-02-21T04:55:59;1.20;;;1.10;;
76712;SDS011;65640;43.154;25.658;2023-02-21T04:58:24;2.35;;;1.02;;
76712;SDS011;65640;43.154;25.658;2023-02-21T05:00:50;1.02;;;1.02;;
76712;SDS011;65640;43.154;25.658;2023-02-21T05:03:15;0.90;;;0.80;;
76712;SDS011;65640;43.154;25.658;2023-02-21T05:05:42;1.20;;;1.02;;
76712;SDS011;65640;43.154;25.658;2023-02-21T05:08:08;1.00;;;0.90;;
76712;SDS011;65640;43.154;25.658;2023-02-21T05:10:33;2.40;;;1.30;;
76712;SDS011;65640;43.154;25.658;2023-02-21T05:12:59;1.35;;;1.05;;
76712;SDS011;65640;43.154;25.658;2023-02-21T05:15:24;2.30;;;0.88;;
76712;SDS011;65640;43.154;25.658;2023-02-21T05:17:50;1.42;;;1.30;;
76712;SDS011;65640;43.154;25.658;2023-02-21T05:20:15;1.38;;;1.27;;
76712;SDS011;65640;43.154;25.658;2023-02-21T05:22:41;1.10;;;1.00;;
76712;SDS011;65640;43.154;25.658;2023-02-21T05:25:14;1.38;;;1.08;;
76712;SDS011;65640;43.154;25.658;2023-02-21T05:27:41;1.20;;;1.00;;
76712;SDS011;65640;43.154;25.658;2023-02-21T05:30:06;2.65;;;1.08;;
76712;SDS011;65640;43.154;25.658;2023-02-21T05:32:33;3.17;;;1.55;;
76712;SDS011;65640;43.154;25.658;2023-02-21T05:34:58;1.75;;;1.15;;
76712;SDS011;65640;43.154;25.658;2023-02-21T05:37:23;1.45;;;1.17;;
76712;SDS011;65640;43.154;25.658;2023-02-21T05:39:49;4.57;;;1.40;;
76712;SDS011;65640;43.154;25.658;2023-02-21T05:42:14;3.28;;;1.40;;
76712;SDS011;65640;43.154;25.658;2023-02-21T05:44:42;2.67;;;1.80;;
76712;SDS011;65640;43.154;25.658;2023-02-21T05:47:09;1.83;;;1.33;;
76712;SDS011;65640;43.154;25.658;2023-02-21T05:49:35;3.00;;;1.45;;
76712;SDS011;65640;43.154;25.658;2023-02-21T05:52:00;1.20;;;1.10;;
76712;SDS011;65640;43.154;25.658;2023-02-21T05:54:26;1.70;;;1.20;;
76712;SDS011;65640;43.154;25.658;2023-02-21T05:56:51;2.17;;;1.42;;
76712;SDS011;65640;43.154;25.658;2023-02-21T05:59:18;1.40;;;1.30;;
76712;SDS011;65640;43.154;25.658;2023-02-21T06:01:45;2.00;;;1.30;;
76712;SDS011;65640;43.154;25.658;2023-02-21T06:04:11;3.47;;;1.45;;
76712;SDS011;65640;43.154;25.658;2023-02-21T06:06:36;2.25;;;1.30;;
76712;SDS011;65640;43.154;25.658;2023-02-21T06:09:02;3.92;;;1.70;;
76712;SDS011;65640;43.154;25.658;2023-02-21T06:11:30;2.65;;;1.77;;
76712;SDS011;65640;43.154;25.658;2023-02-21T06:14:01;1.95;;;1.50;;
76712;SDS011;65640;43.154;25.658;2023-02-21T06:16:31;4.57;;;1.25;;
76712;SDS011;65640;43.154;25.658;2023-02-21T06:19:01;1.75;;;1.58;;
76712;SDS011;65640;43.154;25.658;2023-02-21T06:21:27;1.35;;;1.25;;
76712;SDS011;65640;43.154;25.658;2023-02-21T06:23:53;1.50;;;1.40;;
76712;SDS011;65640;43.154;25.658;2023-02-21T06:26:19;4.93;;;1.58;;
76712;SDS011;65640;43.154;25.658;2023-02-21T06:28:45;1.42;;;1.30;;
76712;SDS011;65640;43.154;25.658;2023-02-21T06:31:11;2.83;;;1.55;;
76712;SDS011;65640;43.154;25.658;2023-02-21T06:33:36;1.83;;;1.30;;
76712;SDS011;65640;43.154;25.658;2023-02-21T06:36:05;1.52;;;1.42;;
76712;SDS011;65640;43.154;25.658;2023-02-21T06:38:33;4.07;;;1.80;;
76712;SDS011;65640;43.154;25.658;2023-02-21T06:40:59;2.13;;;1.58;;
76712;SDS011;65640;43.154;25.658;2023-02-21T06:43:25;1.60;;;1.50;;
76712;SDS011;65640;43.154;25.658;2023-02-21T06:45:50;1.60;;;1.38;;
76712;SDS011;65640;43.154;25.658;2023-02-21T06:48:16;1.83;;;1.58;;
76712;SDS011;65640;43.154;25.658;2023-02-21T06:50:42;2.85;;;1.40;;
76712;SDS011;65640;43.154;25.658;2023-02-21T06:53:07;1.90;;;1.48;;
76712;SDS011;65640;43.154;25.658;2023-02-21T06:55:33;1.70;;;1.60;;
76712;SDS011;65640;43.154;25.658;2023-02-21T06:57:58;1.88;;;1.75;;
76712;SDS011;65640;43.154;25.658;2023-02-21T07:00:24;1.80;;;1.70;;
76712;SDS011;65640;43.154;25.658;2023-02-21T07:05:16;4.03;;;2.15;;
76712;SDS011;65640;43.154;25.658;2023-02-21T07:07:42;5.03;;;3.10;;
76712;SDS011;65640;43.154;25.658;2023-02-21T07:10:08;3.88;;;2.97;;
76712;SDS011;65640;43.154;25.658;2023-02-21T07:12:34;3.53;;;2.25;;
76712;SDS011;65640;43.154;25.658;2023-02-21T07:14:59;2.22;;;1.60;;
76712;SDS011;65640;43.154;25.658;2023-02-21T07:17:24;1.63;;;1.52;;
76712;SDS011;65640;43.154;25.658;2023-02-21T07:19:50;3.60;;;2.33;;
76712;SDS011;65640;43.154;25.658;2023-02-21T07:22:15;5.68;;;2.30;;
76712;SDS011;65640;43.154;25.658;2023-02-21T07:24:43;2.88;;;1.23;;
76712;SDS011;65640;43.154;25.658;2023-02-21T07:27:08;1.33;;;1.08;;
76712;SDS011;65640;43.154;25.658;2023-02-21T07:29:34;2.03;;;1.50;;
76712;SDS011;65640;43.154;25.658;2023-02-21T07:31:59;2.85;;;1.42;;
76712;SDS011;65640;43.154;25.658;2023-02-21T07:34:25;4.90;;;2.00;;
76712;SDS011;65640;43.154;25.658;2023-02-21T07:36:50;4.13;;;1.88;;
76712;SDS011;65640;43.154;25.658;2023-02-21T07:39:15;1.67;;;1.48;;
76712;SDS011;65640;43.154;25.658;2023-02-21T07:41:41;2.65;;;1.35;;
76712;SDS011;65640;43.154;25.658;2023-02-21T07:44:06;1.23;;;0.90;;
76712;SDS011;65640;43.154;25.658;2023-02-21T07:46:32;1.80;;;1.05;;
76712;SDS011;65640;43.154;25.658;2023-02-21T07:48:59;4.13;;;0.93;;
76712;SDS011;65640;43.154;25.658;2023-02-21T07:51:29;2.15;;;1.00;;
76712;SDS011;65640;43.154;25.658;2023-02-21T07:53:55;2.45;;;1.20;;
76712;SDS011;65640;43.154;25.658;2023-02-21T07:56:22;2.72;;;1.13;;
76712;SDS011;65640;43.154;25.658;2023-02-21T07:58:47;4.38;;;0.70;;
76712;SDS011;65640;43.154;25.658;2023-02-21T08:01:13;0.75;;;0.75;;
76712;SDS011;65640;43.154;25.658;2023-02-21T08:03:39;1.45;;;0.75;;
76712;SDS011;65640;43.154;25.658;2023-02-21T08:06:05;0.80;;;0.60;;
76712;SDS011;65640;43.154;25.658;2023-02-21T08:08:32;1.90;;;0.80;;
76712;SDS011;65640;43.154;25.658;2023-02-21T08:10:57;1.38;;;1.25;;
76712;SDS011;65640;43.154;25.658;2023-02-21T08:13:23;0.95;;;0.70;;
76712;SDS011;65640;43.154;25.658;2023-02-21T08:15:48;0.70;;;0.70;;
76712;SDS011;65640;43.154;25.658;2023-02-21T08:18:14;3.45;;;0.80;;
76712;SDS011;65640;43.154;25.658;2023-02-21T08:20:45;2.60;;;0.90;;
76712;SDS011;65640;43.154;25.658;2023-02-21T08:23:11;0.68;;;0.65;;
76712;SDS011;65640;43.154;25.658;2023-02-21T08:25:37;0.93;;;0.80;;
76712;SDS011;65640;43.154;25.658;2023-02-21T08:28:02;0.90;;;0.90;;
76712;SDS011;65640;43.154;25.658;2023-02-21T08:30:28;1.45;;;0.57;;
76712;SDS011;65640;43.154;25.658;2023-02-21T08:32:53;1.20;;;0.75;;
76712;SDS011;65640;43.154;25.658;2023-02-21T08:35:19;1.10;;;1.00;;
76712;SDS011;65640;43.154;25.658;2023-02-21T08:37:48;2.22;;;0.70;;
76712;SDS011;65640;43.154;25.658;2023-02-21T08:40:15;1.25;;;0.75;;
76712;SDS011;65640;43.154;25.658;2023-02-21T08:42:46;2.10;;;0.80;;
76712;SDS011;65640;43.154;25.658;2023-02-21T08:45:16;4.72;;;0.80;;
76712;SDS011;65640;43.154;25.658;2023-02-21T08:47:43;0.95;;;0.90;;
76712;SDS011;65640;43.154;25.658;2023-02-21T08:50:09;10.98;;;6.35;;
76712;SDS011;65640;43.154;25.658;2023-02-21T08:52:35;1.75;;;0.93;;
76712;SDS011;65640;43.154;25.658;2023-02-21T08:55:01;0.75;;;0.70;;
76712;SDS011;65640;43.154;25.658;2023-02-21T08:57:26;3.42;;;0.82;;
76712;SDS011;65640;43.154;25.658;2023-02-21T08:59:52;1.95;;;1.15;;
76712;SDS011;65640;43.154;25.658;2023-02-21T09:02:18;2.53;;;0.50;;
76712;SDS011;65640;43.154;25.658;2023-02-21T09:04:52;0.55;;;0.55;;
76712;SDS011;65640;43.154;25.658;2023-02-21T09:07:19;3.20;;;0.90;;
76712;SDS011;65640;43.154;25.658;2023-02-21T09:09:45;0.50;;;0.50;;
76712;SDS011;65640;43.154;25.658;2023-02-21T09:12:11;3.95;;;0.57;;
76712;SDS011;65640;43.154;25.658;2023-02-21T09:14:37;3.22;;;0.50;;
76712;SDS011;65640;43.154;25.658;2023-02-21T09:17:06;0.70;;;0.50;;
76712;SDS011;65640;43.154;25.658;2023-02-21T09:19:33;1.23;;;0.50;;
76712;SDS011;65640;43.154;25.658;2023-02-21T09:21:59;3.13;;;0.80;;
76712;SDS011;65640;43.154;25.658;2023-02-21T09:24:25;1.80;;;0.60;;
76712;SDS011;65640;43.154;25.658;2023-02-21T09:26:52;4.78;;;0.40;;
76712;SDS011;65640;43.154;25.658;2023-02-21T09:29:31;200.63;;;179.00;;
76712;SDS011;65640;43.154;25.658;2023-02-21T09:31:58;242.15;;;168.35;;
76712;SDS011;65640;43.154;25.658;2023-02-21T09:36:50;155.20;;;80.32;;
76712;SDS011;65640;43.154;25.658;2023-02-21T09:39:16;134.75;;;97.72;;
76712;SDS011;65640;43.154;25.658;2023-02-21T09:41:42;457.75;;;358.20;;
76712;SDS011;65640;43.154;25.658;2023-02-21T09:44:09;352.20;;;276.38;;
76712;SDS011;65640;43.154;25.658;2023-02-21T09:46:40;536.03;;;397.17;;
76712;SDS011;65640;43.154;25.658;2023-02-21T09:49:12;137.07;;;70.35;;
76712;SDS011;65640;43.154;25.658;2023-02-21T09:51:49;128.25;;;58.13;;
76712;SDS011;65640;43.154;25.658;2023-02-21T09:54:27;12.38;;;4.50;;
76712;SDS011;65640;43.154;25.658;2023-02-21T09:56:57;146.68;;;47.30;;
76712;SDS011;65640;43.154;25.658;2023-02-21T09:59:25;32.25;;;12.10;;
76712;SDS011;65640;43.154;25.658;2023-02-21T10:02:15;39.53;;;23.52;;
76712;SDS011;65640;43.154;25.658;2023-02-21T10:05:12;30.70;;;18.05;;
76712;SDS011;65640;43.154;25.658;2023-02-21T10:21:00;1.45;;;0.60;;
76712;SDS011;65640;43.154;25.658;2023-02-21T10:23:35;3.10;;;0.60;;
76712;SDS011;65640;43.154;25.658;2023-02-21T10:26:09;4.47;;;0.60;;
76712;SDS011;65640;43.154;25.658;2023-02-21T10:31:06;1.23;;;0.60;;
76712;SDS011;65640;43.154;25.658;2023-02-21T10:33:35;1.35;;;0.50;;
76712;SDS011;65640;43.154;25.658;2023-02-21T10:36:04;3.38;;;0.80;;
76712;SDS011;65640;43.154;25.658;2023-02-21T10:38:37;3.03;;;0.47;;
76712;SDS011;65640;43.154;25.658;2023-02-21T10:41:05;12.82;;;1.00;;
76712;SDS011;65640;43.154;25.658;2023-02-21T10:43:43;6.25;;;0.60;;
76712;SDS011;65640;43.154;25.658;2023-02-21T10:48:38;3.78;;;1.33;;
76712;SDS011;65640;43.154;25.658;2023-02-21T10:51:13;2.90;;;1.23;;
76712;SDS011;65640;43.154;25.658;2023-02-21T10:53:41;3.15;;;1.85;;
76712;SDS011;65640;43.154;25.658;2023-02-21T11:04:01;0.93;;;0.70;;
76712;SDS011;65640;43.154;25.658;2023-02-21T11:08:55;0.88;;;0.60;;
76712;SDS011;65640;43.154;25.658;2023-02-21T11:11:34;1.52;;;0.60;;
76712;SDS011;65640;43.154;25.658;2023-02-21T11:14:18;1.90;;;0.50;;
76712;SDS011;65640;43.154;25.658;2023-02-21T11:17:10;1.20;;;0.70;;
76712;SDS011;65640;43.154;25.658;2023-02-21T11:19:48;4.13;;;0.77;;
76712;SDS011;65640;43.154;25.658;2023-02-21T11:22:18;2.13;;;0.70;;
76712;SDS011;65640;43.154;25.658;2023-02-21T11:25:05;0.70;;;0.70;;
76712;SDS011;65640;43.154;25.658;2023-02-21T11:27:43;0.90;;;0.90;;
76712;SDS011;65640;43.154;25.658;2023-02-21T11:30:13;1.27;;;0.50;;
76712;SDS011;65640;43.154;25.658;2023-02-21T11:32:47;0.80;;;0.60;;
76712;SDS011;65640;43.154;25.658;2023-02-21T11:35:25;2.25;;;0.70;;
76712;SDS011;65640;43.154;25.658;2023-02-21T11:40:27;1.00;;;0.77;;
76712;SDS011;65640;43.154;25.658;2023-02-21T11:43:16;2.33;;;0.77;;
76712;SDS011;65640;43.154;25.658;2023-02-21T11:46:09;1.17;;;0.63;;
76712;SDS011;65640;43.154;25.658;2023-02-21T11:48:53;0.68;;;0.63;;
76712;SDS011;65640;43.154;25.658;2023-02-21T11:54:14;5.15;;;0.90;;
76712;SDS011;65640;43.154;25.658;2023-02-21T12:00:11;3.30;;;0.77;;
76712;SDS011;65640;43.154;25.658;2023-02-21T12:05:29;6.55;;;0.77;;
76712;SDS011;65640;43.154;25.658;2023-02-21T12:10:42;1.27;;;0.88;;
76712;SDS011;65640;43.154;25.658;2023-02-21T12:16:22;1.15;;;0.80;;
76712;SDS011;65640;43.154;25.658;2023-02-21T12:19:12;1.65;;;1.00;;
76712;SDS011;65640;43.154;25.658;2023-02-21T12:24:32;1.00;;;0.70;;
76712;SDS011;65640;43.154;25.658;2023-02-21T12:27:12;1.10;;;0.98;;
76712;SDS011;65640;43.154;25.658;2023-02-21T12:41:32;1.52;;;0.57;;
76712;SDS011;65640;43.154;25.658;2023-02-21T12:44:16;28.20;;;1.48;;
76712;SDS011;65640;43.154;25.658;2023-02-21T12:49:18;1.77;;;1.05;;
76712;SDS011;65640;43.154;25.658;2023-02-21T12:52:01;3.60;;;0.57;;
76712;SDS011;65640;43.154;25.658;2023-02-21T12:57:15;1.02;;;0.63;;
76712;SDS011;65640;43.154;25.658;2023-02-21T13:05:29;1.58;;;0.60;;
76712;SDS011;65640;43.154;25.658;2023-02-21T13:08:04;1.05;;;0.65;;
76712;SDS011;65640;43.154;25.658;2023-02-21T13:11:21;1.83;;;0.70;;
76712;SDS011;65640;43.154;25.658;2023-02-21T13:13:43;1.70;;;0.40;;
76712;SDS011;65640;43.154;25.658;2023-02-21T13:16:09;3.20;;;0.60;;
76712;SDS011;65640;43.154;25.658;2023-02-21T13:18:47;0.73;;;0.40;;
76712;SDS011;65640;43.154;25.658;2023-02-21T13:30:11;7.90;;;1.00;;
76712;SDS011;65640;43.154;25.658;2023-02-21T13:32:48;2.25;;;0.70;;
76712;SDS011;65640;43.154;25.658;2023-02-21T13:35:24;0.63;;;0.63;;
76712;SDS011;65640;43.154;25.658;2023-02-21T13:37:54;0.60;;;0.50;;
76712;SDS011;65640;43.154;25.658;2023-02-21T13:40:21;0.50;;;0.50;;
76712;SDS011;65640;43.154;25.658;2023-02-21T13:43:03;2.30;;;0.80;;
76712;SDS011;65640;43.154;25.658;2023-02-21T13:45:31;8.65;;;1.95;;
76712;SDS011;65640;43.154;25.658;2023-02-21T13:55:33;0.90;;;0.82;;
76712;SDS011;65640;43.154;25.658;2023-02-21T14:08:11;3.67;;;1.10;;
76712;SDS011;65640;43.154;25.658;2023-02-21T14:10:47;2.70;;;1.20;;
76712;SDS011;65640;43.154;25.658;2023-02-21T14:13:33;1.42;;;0.80;;
76712;SDS011;65640;43.154;25.658;2023-02-21T14:23:49;1.83;;;1.00;;
76712;SDS011;65640;43.154;25.658;2023-02-21T14:31:48;1.48;;;1.38;;
76712;SDS011;65640;43.154;25.658;2023-02-21T14:34:23;2.28;;;1.50;;
76712;SDS011;65640;43.154;25.658;2023-02-21T14:36:52;1.40;;;1.30;;
76712;SDS011;65640;43.154;25.658;2023-02-21T14:39:21;1.40;;;1.30;;
76712;SDS011;65640;43.154;25.658;2023-02-21T14:44:30;2.00;;;1.75;;
76712;SDS011;65640;43.154;25.658;2023-02-21T15:01:37;1.70;;;1.60;;
76712;SDS011;65640;43.154;25.658;2023-02-21T15:04:16;1.70;;;1.60;;
76712;SDS011;65640;43.154;25.658;2023-02-21T15:10:05;4.47;;;1.90;;
76712;SDS011;65640;43.154;25.658;2023-02-21T15:12:38;2.90;;;1.55;;
76712;SDS011;65640;43.154;25.658;2023-02-21T15:17:58;4.65;;;1.48;;
76712;SDS011;65640;43.154;25.658;2023-02-21T15:20:27;1.67;;;1.00;;
76712;SDS011;65640;43.154;25.658;2023-02-21T15:23:01;1.98;;;1.25;;
76712;SDS011;65640;43.154;25.658;2023-02-21T15:25:35;1.10;;;1.00;;
76712;SDS011;65640;43.154;25.658;2023-02-21T15:28:01;1.10;;;0.90;;
76712;SDS011;65640;43.154;25.658;2023-02-21T15:30:30;1.13;;;1.00;;
76712;SDS011;65640;43.154;25.658;2023-02-21T15:33:25;3.60;;;2.90;;
76712;SDS011;65640;43.154;25.658;2023-02-21T15:36:14;2.88;;;1.08;;
76712;SDS011;65640;43.154;25.658;2023-02-21T15:38:40;1.08;;;0.98;;
76712;SDS011;65640;43.154;25.658;2023-02-21T15:41:25;2.17;;;1.08;;
76712;SDS011;65640;43.154;25.658;2023-02-21T15:43:59;3.03;;;1.73;;
76712;SDS011;65640;43.154;25.658;2023-02-21T15:46:26;1.92;;;1.50;;
76712;SDS011;65640;43.154;25.658;2023-02-21T15:48:58;1.40;;;1.08;;
76712;SDS011;65640;43.154;25.658;2023-02-21T15:51:26;1.27;;;1.10;;
76712;SDS011;65640;43.154;25.658;2023-02-21T15:54:20;1.42;;;1.33;;
76712;SDS011;65640;43.154;25.658;2023-02-21T15:56:47;2.65;;;1.90;;
76712;SDS011;65640;43.154;25.658;2023-02-21T15:59:25;2.20;;;1.55;;
76712;SDS011;65640;43.154;25.658;2023-02-21T16:04:36;2.78;;;2.35;;
76712;SDS011;65640;43.154;25.658;2023-02-21T16:07:03;6.82;;;3.40;;
76712;SDS011;65640;43.154;25.658;2023-02-21T16:09:31;5.75;;;4.25;;
76712;SDS011;65640;43.154;25.658;2023-02-21T16:12:02;4.55;;;3.45;;
76712;SDS011;65640;43.154;25.658;2023-02-21T16:14:32;7.43;;;5.70;;
76712;SDS011;65640;43.154;25.658;2023-02-21T16:19:41;4.38;;;2.10;;
76712;SDS011;65640;43.154;25.658;2023-02-21T16:27:30;3.10;;;2.55;;
76712;SDS011;65640;43.154;25.658;2023-02-21T16:29:55;3.05;;;1.90;;
76712;SDS011;65640;43.154;25.658;2023-02-21T16:32:21;3.72;;;1.80;;
76712;SDS011;65640;43.154;25.658;2023-02-21T16:34:46;2.03;;;1.92;;
76712;SDS011;65640;43.154;25.658;2023-02-21T16:37:15;2.55;;;2.10;;
76712;SDS011;65640;43.154;25.658;2023-02-21T16:39:41;4.72;;;3.60;;
76712;SDS011;65640;43.154;25.658;2023-02-21T16:42:06;3.28;;;2.72;;
76712;SDS011;65640;43.154;25.658;2023-02-21T16:44:32;8.70;;;2.40;;
76712;SDS011;65640;43.154;25.658;2023-02-21T16:46:57;4.97;;;1.65;;
76712;SDS011;65640;43.154;25.658;2023-02-21T16:49:23;3.65;;;1.90;;
76712;SDS011;65640;43.154;25.658;2023-02-21T16:51:49;3.92;;;2.30;;
76712;SDS011;65640;43.154;25.658;2023-02-21T16:54:15;2.95;;;2.53;;
76712;SDS011;65640;43.154;25.658;2023-02-21T16:56:41;7.32;;;2.70;;
76712;SDS011;65640;43.154;25.658;2023-02-21T16:59:09;3.47;;;2.22;;
76712;SDS011;65640;43.154;25.658;2023-02-21T17:01:37;3.50;;;1.58;;
76712;SDS011;65640;43.154;25.658;2023-02-21T17:04:04;1.65;;;1.45;;
76712;SDS011;65640;43.154;25.658;2023-02-21T17:06:31;4.07;;;1.60;;
76712;SDS011;65640;43.154;25.658;2023-02-21T17:08:57;2.67;;;1.65;;
76712;SDS011;65640;43.154;25.658;2023-02-21T17:11:23;2.10;;;1.83;;
76712;SDS011;65640;43.154;25.658;2023-02-21T17:13:49;1.42;;;1.30;;
76712;SDS011;65640;43.154;25.658;2023-02-21T17:16:15;4.57;;;2.17;;
76712;SDS011;65640;43.154;25.658;2023-02-21T17:18:42;1.83;;;1.73;;
76712;SDS011;65640;43.154;25.658;2023-02-21T17:21:08;5.43;;;2.85;;
76712;SDS011;65640;43.154;25.658;2023-02-21T17:23:34;4.63;;;2.80;;
76712;SDS011;65640;43.154;25.658;2023-02-21T17:25:59;2.63;;;2.30;;
76712;SDS011;65640;43.154;25.658;2023-02-21T17:28:25;2.03;;;1.88;;
76712;SDS011;65640;43.154;25.658;2023-02-21T17:30:50;3.47;;;3.17;;
76712;SDS011;65640;43.154;25.658;2023-02-21T17:33:16;7.15;;;4.68;;
76712;SDS011;65640;43.154;25.658;2023-02-21T17:35:41;5.35;;;4.35;;
76712;SDS011;65640;43.154;25.658;2023-02-21T17:38:07;3.90;;;3.45;;
76712;SDS011;65640;43.154;25.658;2023-02-21T17:40:32;6.88;;;2.53;;
76712;SDS011;65640;43.154;25.658;2023-02-21T17:42:58;3.72;;;3.10;;
76712;SDS011;65640;43.154;25.658;2023-02-21T17:45:23;2.50;;;2.30;;
76712;SDS011;65640;43.154;25.658;2023-02-21T17:47:50;2.72;;;2.53;;
76712;SDS011;65640;43.154;25.658;2023-02-21T17:50:18;3.17;;;2.20;;
76712;SDS011;65640;43.154;25.658;2023-02-21T17:52:43;3.88;;;3.15;;
76712;SDS011;65640;43.154;25.658;2023-02-21T17:55:10;3.08;;;2.65;;
76712;SDS011;65640;43.154;25.658;2023-02-21T17:57:42;4.88;;;3.50;;
76712;SDS011;65640;43.154;25.658;2023-02-21T18:00:09;4.72;;;3.83;;
76712;SDS011;65640;43.154;25.658;2023-02-21T18:02:40;6.85;;;4.07;;
76712;SDS011;65640;43.154;25.658;2023-02-21T18:05:06;14.35;;;7.72;;
76712;SDS011;65640;43.154;25.658;2023-02-21T18:09:59;15.52;;;8.50;;
76712;SDS011;65640;43.154;25.658;2023-02-21T18:12:27;17.92;;;9.55;;
76712;SDS011;65640;43.154;25.658;2023-02-21T18:14:53;16.20;;;8.10;;